Pagina principală
METAR-TAF:

METAR-TAF

Aeroporturi :

Hutchinson County Airport

Borger, Texas, Statele Unite ale Americii

Latitudine: 35-41-42N, longitudine: 101-23-42W, elevație: 931 m

Observații meteo curente

Raportul a fost făcut în urmă cu 20 de minute, la 21:51 UTC
Vânt 3 kt din direcții variabile
Temperatură 36°C
Umiditate 29%
Presiune 1017 hPa
Vizibilitate: 16.1 km
Nori împrăștiați la o înălțime de 8500 picior

METAR: KBGD 222151Z AUTO VRB03KT 10SM SCT085 36/15 A3002 RMK AO2 SLP112 T03610150

Ora: 17:11 (22:11 UTC)


TAF: lipsă

Observații și prognoze meteo pentru peste 4.000 de aeroporturi (rapoarte METAR și TAF).

Stațiile disponibile sunt reprezentate pe hartă prin puncte galbene și roșii.

Țineți indicatorul mouse-ului pe punctul dorit pentru a vedea denumirea stației.

Apoi, faceți clic pentru a vedea observațiile și prognozele meteorologice.

Pentru a schimba harta: Pentru mărire, faceți clic pe butoanele verzi cu cruce neagră; pentru micșorare, pe butonul verde cu o liniuță; pentru hărți învecinate, pe săgețile verzi.


METAR-TAF: